sensor_id;sensor_type;location;lat;lon;timestamp;temperature;humidity
11284;DHT22;5698;47.332;11.180;2023-09-19T00:02:06;12.20;99.90
11284;DHT22;5698;47.332;11.180;2023-09-19T00:04:34;12.20;99.90
11284;DHT22;5698;47.332;11.180;2023-09-19T00:07:05;12.20;99.90
11284;DHT22;5698;47.332;11.180;2023-09-19T00:09:32;12.20;99.90
11284;DHT22;5698;47.332;11.180;2023-09-19T00:12:03;12.20;99.90
11284;DHT22;5698;47.332;11.180;2023-09-19T00:14:30;12.20;99.90
11284;DHT22;5698;47.332;11.180;2023-09-19T00:17:00;12.20;99.90
11284;DHT22;5698;47.332;11.180;2023-09-19T00:19:32;12.30;99.90
11284;DHT22;5698;47.332;11.180;2023-09-19T00:21:59;12.30;99.90
11284;DHT22;5698;47.332;11.180;2023-09-19T00:24:27;12.30;99.90
11284;DHT22;5698;47.332;11.180;2023-09-19T00:26:54;12.30;99.90
11284;DHT22;5698;47.332;11.180;2023-09-19T00:29:22;12.30;99.90
11284;DHT22;5698;47.332;11.180;2023-09-19T00:31:49;12.30;99.90
11284;DHT22;5698;47.332;11.180;2023-09-19T00:34:16;12.30;99.90
11284;DHT22;5698;47.332;11.180;2023-09-19T00:36:45;12.30;99.90
11284;DHT22;5698;47.332;11.180;2023-09-19T00:39:12;12.40;99.90
11284;DHT22;5698;47.332;11.180;2023-09-19T00:41:39;12.40;99.90
11284;DHT22;5698;47.332;11.180;2023-09-19T00:44:06;12.40;99.90
11284;DHT22;5698;47.332;11.180;2023-09-19T00:46:35;12.40;99.90
11284;DHT22;5698;47.332;11.180;2023-09-19T00:49:02;12.40;99.90
11284;DHT22;5698;47.332;11.180;2023-09-19T00:51:29;12.40;99.90
11284;DHT22;5698;47.332;11.180;2023-09-19T00:53:59;12.40;99.90
11284;DHT22;5698;47.332;11.180;2023-09-19T00:56:26;12.40;99.90
11284;DHT22;5698;47.332;11.180;2023-09-19T00:58:53;12.40;99.90
11284;DHT22;5698;47.332;11.180;2023-09-19T01:01:20;12.40;99.90
11284;DHT22;5698;47.332;11.180;2023-09-19T01:03:47;12.40;99.90
11284;DHT22;5698;47.332;11.180;2023-09-19T01:06:14;12.40;99.90
11284;DHT22;5698;47.332;11.180;2023-09-19T01:08:41;12.40;99.90
11284;DHT22;5698;47.332;11.180;2023-09-19T01:11:14;12.40;99.90
11284;DHT22;5698;47.332;11.180;2023-09-19T01:13:54;12.40;99.90
11284;DHT22;5698;47.332;11.180;2023-09-19T01:16:32;12.40;99.90
11284;DHT22;5698;47.332;11.180;2023-09-19T01:19:19;12.50;99.90
11284;DHT22;5698;47.332;11.180;2023-09-19T01:21:57;12.60;99.90
11284;DHT22;5698;47.332;11.180;2023-09-19T01:27:53;12.50;99.90
11284;DHT22;5698;47.332;11.180;2023-09-19T01:30:32;12.50;99.90
11284;DHT22;5698;47.332;11.180;2023-09-19T01:32:59;12.50;99.90
11284;DHT22;5698;47.332;11.180;2023-09-19T01:35:26;12.40;99.90
11284;DHT22;5698;47.332;11.180;2023-09-19T01:37:53;12.40;99.90
11284;DHT22;5698;47.332;11.180;2023-09-19T01:40:21;12.40;99.90
11284;DHT22;5698;47.332;11.180;2023-09-19T01:42:59;12.30;99.90
11284;DHT22;5698;47.332;11.180;2023-09-19T01:45:35;12.30;99.90
11284;DHT22;5698;47.332;11.180;2023-09-19T01:48:15;12.30;99.90
11284;DHT22;5698;47.332;11.180;2023-09-19T01:50:51;12.30;99.90
11284;DHT22;5698;47.332;11.180;2023-09-19T01:53:25;12.40;99.90
11284;DHT22;5698;47.332;11.180;2023-09-19T01:55:54;12.40;99.90
11284;DHT22;5698;47.332;11.180;2023-09-19T01:58:27;12.40;99.90
11284;DHT22;5698;47.332;11.180;2023-09-19T02:00:58;12.30;99.90
11284;DHT22;5698;47.332;11.180;2023-09-19T02:03:27;12.40;99.90
11284;DHT22;5698;47.332;11.180;2023-09-19T02:05:55;12.40;99.90
11284;DHT22;5698;47.332;11.180;2023-09-19T02:08:22;12.30;99.90
11284;DHT22;5698;47.332;11.180;2023-09-19T02:10:50;12.30;99.90
11284;DHT22;5698;47.332;11.180;2023-09-19T02:13:19;12.30;99.90
11284;DHT22;5698;47.332;11.180;2023-09-19T02:15:46;12.40;99.90
11284;DHT22;5698;47.332;11.180;2023-09-19T02:18:15;12.50;99.90
11284;DHT22;5698;47.332;11.180;2023-09-19T02:20:42;12.40;99.90
11284;DHT22;5698;47.332;11.180;2023-09-19T02:23:10;12.50;99.90
11284;DHT22;5698;47.332;11.180;2023-09-19T02:25:38;12.50;99.90
11284;DHT22;5698;47.332;11.180;2023-09-19T02:28:06;12.50;99.90
11284;DHT22;5698;47.332;11.180;2023-09-19T02:30:34;12.40;99.90
11284;DHT22;5698;47.332;11.180;2023-09-19T02:33:02;12.40;99.90
11284;DHT22;5698;47.332;11.180;2023-09-19T02:35:31;12.40;99.90
11284;DHT22;5698;47.332;11.180;2023-09-19T02:38:00;12.40;99.90
11284;DHT22;5698;47.332;11.180;2023-09-19T02:40:27;12.30;99.90
11284;DHT22;5698;47.332;11.180;2023-09-19T02:42:56;12.30;99.90
11284;DHT22;5698;47.332;11.180;2023-09-19T02:45:25;12.30;99.90
11284;DHT22;5698;47.332;11.180;2023-09-19T02:47:52;12.20;99.90
11284;DHT22;5698;47.332;11.180;2023-09-19T02:50:19;12.20;99.90
11284;DHT22;5698;47.332;11.180;2023-09-19T02:52:48;12.20;99.90
11284;DHT22;5698;47.332;11.180;2023-09-19T02:55:16;12.20;99.90
11284;DHT22;5698;47.332;11.180;2023-09-19T02:57:48;12.20;99.90
11284;DHT22;5698;47.332;11.180;2023-09-19T03:00:18;12.20;99.90
11284;DHT22;5698;47.332;11.180;2023-09-19T03:02:47;12.20;99.90
11284;DHT22;5698;47.332;11.180;2023-09-19T03:05:14;12.20;99.90
11284;DHT22;5698;47.332;11.180;2023-09-19T03:07:42;12.20;99.90
11284;DHT22;5698;47.332;11.180;2023-09-19T03:10:12;12.30;99.90
11284;DHT22;5698;47.332;11.180;2023-09-19T03:12:40;12.30;99.90
11284;DHT22;5698;47.332;11.180;2023-09-19T03:15:08;12.20;99.90
11284;DHT22;5698;47.332;11.180;2023-09-19T03:17:35;12.20;99.90
11284;DHT22;5698;47.332;11.180;2023-09-19T03:20:02;12.10;99.90
11284;DHT22;5698;47.332;11.180;2023-09-19T03:22:30;12.10;99.90
11284;DHT22;5698;47.332;11.180;2023-09-19T03:24:58;12.10;99.90
11284;DHT22;5698;47.332;11.180;2023-09-19T03:27:27;12.10;99.90
11284;DHT22;5698;47.332;11.180;2023-09-19T03:29:54;12.10;99.90
11284;DHT22;5698;47.332;11.180;2023-09-19T03:32:21;12.00;99.90
11284;DHT22;5698;47.332;11.180;2023-09-19T03:34:48;11.90;99.90
11284;DHT22;5698;47.332;11.180;2023-09-19T03:37:15;11.90;99.90
11284;DHT22;5698;47.332;11.180;2023-09-19T03:39:43;11.80;99.90
11284;DHT22;5698;47.332;11.180;2023-09-19T03:42:10;11.80;99.90
11284;DHT22;5698;47.332;11.180;2023-09-19T03:44:38;11.80;99.90
11284;DHT22;5698;47.332;11.180;2023-09-19T03:47:05;11.70;99.90
11284;DHT22;5698;47.332;11.180;2023-09-19T03:49:32;11.80;99.90
11284;DHT22;5698;47.332;11.180;2023-09-19T03:51:59;11.80;99.90
11284;DHT22;5698;47.332;11.180;2023-09-19T03:54:26;11.70;99.90
11284;DHT22;5698;47.332;11.180;2023-09-19T03:56:53;11.60;99.90
11284;DHT22;5698;47.332;11.180;2023-09-19T03:59:20;11.60;99.90
11284;DHT22;5698;47.332;11.180;2023-09-19T04:01:49;11.60;99.90
11284;DHT22;5698;47.332;11.180;2023-09-19T04:04:21;11.50;99.90
11284;DHT22;5698;47.332;11.180;2023-09-19T04:06:50;11.50;99.90
11284;DHT22;5698;47.332;11.180;2023-09-19T04:09:17;11.50;99.90
11284;DHT22;5698;47.332;11.180;2023-09-19T04:11:44;11.50;99.90
11284;DHT22;5698;47.332;11.180;2023-09-19T04:14:11;11.40;99.90
11284;DHT22;5698;47.332;11.180;2023-09-19T04:16:38;11.40;99.90
11284;DHT22;5698;47.332;11.180;2023-09-19T04:19:06;11.40;99.90
11284;DHT22;5698;47.332;11.180;2023-09-19T04:21:33;11.30;99.90
11284;DHT22;5698;47.332;11.180;2023-09-19T04:24:00;11.30;99.90
11284;DHT22;5698;47.332;11.180;2023-09-19T04:26:28;11.40;99.90
11284;DHT22;5698;47.332;11.180;2023-09-19T04:28:55;11.40;99.90
11284;DHT22;5698;47.332;11.180;2023-09-19T04:31:22;11.40;99.90
11284;DHT22;5698;47.332;11.180;2023-09-19T04:33:50;11.40;99.90
11284;DHT22;5698;47.332;11.180;2023-09-19T04:36:18;11.40;99.90
11284;DHT22;5698;47.332;11.180;2023-09-19T04:38:46;11.40;99.90
11284;DHT22;5698;47.332;11.180;2023-09-19T04:41:13;11.40;99.90
11284;DHT22;5698;47.332;11.180;2023-09-19T04:43:41;11.40;99.90
11284;DHT22;5698;47.332;11.180;2023-09-19T04:46:08;11.40;99.90
11284;DHT22;5698;47.332;11.180;2023-09-19T04:48:35;11.40;99.90
11284;DHT22;5698;47.332;11.180;2023-09-19T04:51:02;11.40;99.90
11284;DHT22;5698;47.332;11.180;2023-09-19T04:53:31;11.40;99.90
11284;DHT22;5698;47.332;11.180;2023-09-19T04:55:58;11.50;99.90
11284;DHT22;5698;47.332;11.180;2023-09-19T04:58:25;11.40;99.90
11284;DHT22;5698;47.332;11.180;2023-09-19T05:00:52;11.50;99.90
11284;DHT22;5698;47.332;11.180;2023-09-19T05:03:19;11.50;99.90
11284;DHT22;5698;47.332;11.180;2023-09-19T05:05:47;11.50;99.90
11284;DHT22;5698;47.332;11.180;2023-09-19T05:08:14;11.50;99.90
11284;DHT22;5698;47.332;11.180;2023-09-19T05:10:43;11.40;99.90
11284;DHT22;5698;47.332;11.180;2023-09-19T05:13:10;11.40;99.90
11284;DHT22;5698;47.332;11.180;2023-09-19T05:15:37;11.40;99.90
11284;DHT22;5698;47.332;11.180;2023-09-19T05:18:04;11.40;99.90
11284;DHT22;5698;47.332;11.180;2023-09-19T05:20:32;11.40;99.90
11284;DHT22;5698;47.332;11.180;2023-09-19T05:23:02;11.40;99.90
11284;DHT22;5698;47.332;11.180;2023-09-19T05:25:33;11.40;99.90
11284;DHT22;5698;47.332;11.180;2023-09-19T05:28:04;11.40;99.90
11284;DHT22;5698;47.332;11.180;2023-09-19T05:30:31;11.50;99.90
11284;DHT22;5698;47.332;11.180;2023-09-19T05:32:59;11.40;99.90
11284;DHT22;5698;47.332;11.180;2023-09-19T05:35:26;11.40;99.90
11284;DHT22;5698;47.332;11.180;2023-09-19T05:37:53;11.50;99.90
11284;DHT22;5698;47.332;11.180;2023-09-19T05:40:21;11.50;99.90
11284;DHT22;5698;47.332;11.180;2023-09-19T05:42:48;11.50;99.90
11284;DHT22;5698;47.332;11.180;2023-09-19T05:45:18;11.50;99.90
11284;DHT22;5698;47.332;11.180;2023-09-19T05:47:47;11.50;99.90
11284;DHT22;5698;47.332;11.180;2023-09-19T05:50:15;11.60;99.90
11284;DHT22;5698;47.332;11.180;2023-09-19T05:52:47;11.70;99.90
11284;DHT22;5698;47.332;11.180;2023-09-19T05:55:17;11.70;99.90
11284;DHT22;5698;47.332;11.180;2023-09-19T05:57:49;11.70;99.90
11284;DHT22;5698;47.332;11.180;2023-09-19T06:00:18;11.80;99.90
11284;DHT22;5698;47.332;11.180;2023-09-19T06:02:50;11.70;99.90
11284;DHT22;5698;47.332;11.180;2023-09-19T06:05:17;11.70;99.90
11284;DHT22;5698;47.332;11.180;2023-09-19T06:07:44;11.70;99.90
11284;DHT22;5698;47.332;11.180;2023-09-19T06:10:12;11.70;99.90
11284;DHT22;5698;47.332;11.180;2023-09-19T06:12:40;11.70;99.90
11284;DHT22;5698;47.332;11.180;2023-09-19T06:15:10;11.80;99.90
11284;DHT22;5698;47.332;11.180;2023-09-19T06:17:42;11.80;99.90
11284;DHT22;5698;47.332;11.180;2023-09-19T06:20:09;11.90;99.90
11284;DHT22;5698;47.332;11.180;2023-09-19T06:22:40;11.90;99.90
11284;DHT22;5698;47.332;11.180;2023-09-19T06:25:08;11.90;99.90
11284;DHT22;5698;47.332;11.180;2023-09-19T06:27:37;11.90;99.90
11284;DHT22;5698;47.332;11.180;2023-09-19T06:30:06;11.90;99.90
11284;DHT22;5698;47.332;11.180;2023-09-19T06:32:33;12.00;99.90
11284;DHT22;5698;47.332;11.180;2023-09-19T06:35:02;11.90;99.90
11284;DHT22;5698;47.332;11.180;2023-09-19T06:37:34;12.00;99.90
11284;DHT22;5698;47.332;11.180;2023-09-19T06:40:01;12.00;99.90
11284;DHT22;5698;47.332;11.180;2023-09-19T06:42:31;12.00;99.90
11284;DHT22;5698;47.332;11.180;2023-09-19T06:44:58;12.00;99.90
11284;DHT22;5698;47.332;11.180;2023-09-19T06:47:25;12.00;99.90
11284;DHT22;5698;47.332;11.180;2023-09-19T06:49:52;12.10;99.90
11284;DHT22;5698;47.332;11.180;2023-09-19T06:52:20;12.10;99.90
11284;DHT22;5698;47.332;11.180;2023-09-19T06:54:47;12.20;99.90
11284;DHT22;5698;47.332;11.180;2023-09-19T06:57:15;12.30;99.90
11284;DHT22;5698;47.332;11.180;2023-09-19T06:59:42;12.40;99.90
11284;DHT22;5698;47.332;11.180;2023-09-19T07:02:10;12.50;99.90
11284;DHT22;5698;47.332;11.180;2023-09-19T07:04:37;12.80;99.90
11284;DHT22;5698;47.332;11.180;2023-09-19T07:07:04;13.10;99.90
11284;DHT22;5698;47.332;11.180;2023-09-19T07:09:32;13.30;99.90
11284;DHT22;5698;47.332;11.180;2023-09-19T07:11:59;13.60;99.90
11284;DHT22;5698;47.332;11.180;2023-09-19T07:14:26;13.80;99.90
11284;DHT22;5698;47.332;11.180;2023-09-19T07:16:53;13.90;99.90
11284;DHT22;5698;47.332;11.180;2023-09-19T07:19:20;14.00;99.90
11284;DHT22;5698;47.332;11.180;2023-09-19T07:21:47;14.20;99.90
11284;DHT22;5698;47.332;11.180;2023-09-19T07:24:15;14.20;99.90
11284;DHT22;5698;47.332;11.180;2023-09-19T07:26:45;14.30;99.90
11284;DHT22;5698;47.332;11.180;2023-09-19T07:29:12;14.40;99.90
11284;DHT22;5698;47.332;11.180;2023-09-19T07:31:39;14.60;99.90
11284;DHT22;5698;47.332;11.180;2023-09-19T07:34:06;14.80;99.90
11284;DHT22;5698;47.332;11.180;2023-09-19T07:36:34;15.20;99.90
11284;DHT22;5698;47.332;11.180;2023-09-19T07:39:03;15.60;99.90
11284;DHT22;5698;47.332;11.180;2023-09-19T07:41:32;15.90;99.90
11284;DHT22;5698;47.332;11.180;2023-09-19T07:44:00;16.00;99.90
11284;DHT22;5698;47.332;11.180;2023-09-19T07:46:27;16.00;99.90
11284;DHT22;5698;47.332;11.180;2023-09-19T07:48:56;16.00;99.90
11284;DHT22;5698;47.332;11.180;2023-09-19T07:51:23;15.90;99.90
11284;DHT22;5698;47.332;11.180;2023-09-19T07:53:50;15.80;99.90
11284;DHT22;5698;47.332;11.180;2023-09-19T07:56:18;15.80;99.90
11284;DHT22;5698;47.332;11.180;2023-09-19T07:58:46;15.80;99.90
11284;DHT22;5698;47.332;11.180;2023-09-19T08:01:14;16.00;99.90
11284;DHT22;5698;47.332;11.180;2023-09-19T08:03:41;16.30;99.90
11284;DHT22;5698;47.332;11.180;2023-09-19T08:06:10;16.70;99.90
11284;DHT22;5698;47.332;11.180;2023-09-19T08:08:37;16.80;99.90
11284;DHT22;5698;47.332;11.180;2023-09-19T08:11:05;16.90;99.90
11284;DHT22;5698;47.332;11.180;2023-09-19T08:13:37;17.00;99.90
11284;DHT22;5698;47.332;11.180;2023-09-19T08:16:07;17.10;99.90
11284;DHT22;5698;47.332;11.180;2023-09-19T08:18:35;17.00;99.90
11284;DHT22;5698;47.332;11.180;2023-09-19T08:21:02;16.80;99.90
11284;DHT22;5698;47.332;11.180;2023-09-19T08:23:29;16.50;99.90
11284;DHT22;5698;47.332;11.180;2023-09-19T08:25:58;16.40;99.90
11284;DHT22;5698;47.332;11.180;2023-09-19T08:28:28;16.20;99.90
11284;DHT22;5698;47.332;11.180;2023-09-19T08:30:55;16.20;99.90
11284;DHT22;5698;47.332;11.180;2023-09-19T08:33:23;16.20;99.90
11284;DHT22;5698;47.332;11.180;2023-09-19T08:35:52;16.40;99.90
11284;DHT22;5698;47.332;11.180;2023-09-19T08:38:18;16.60;99.90
11284;DHT22;5698;47.332;11.180;2023-09-19T08:40:45;16.70;99.90
11284;DHT22;5698;47.332;11.180;2023-09-19T08:43:12;16.80;99.90
11284;DHT22;5698;47.332;11.180;2023-09-19T08:45:39;17.00;99.90
11284;DHT22;5698;47.332;11.180;2023-09-19T08:48:22;17.30;99.90
11284;DHT22;5698;47.332;11.180;2023-09-19T08:50:54;17.80;99.90
11284;DHT22;5698;47.332;11.180;2023-09-19T08:53:27;18.20;99.90
11284;DHT22;5698;47.332;11.180;2023-09-19T08:55:59;18.70;99.90
11284;DHT22;5698;47.332;11.180;2023-09-19T08:58:37;19.10;99.90
11284;DHT22;5698;47.332;11.180;2023-09-19T09:01:07;19.30;99.90
11284;DHT22;5698;47.332;11.180;2023-09-19T09:03:35;19.60;99.90
11284;DHT22;5698;47.332;11.180;2023-09-19T09:06:03;19.70;99.90
11284;DHT22;5698;47.332;11.180;2023-09-19T09:08:31;19.90;99.90
11284;DHT22;5698;47.332;11.180;2023-09-19T09:10:59;20.00;99.90
11284;DHT22;5698;47.332;11.180;2023-09-19T09:13:26;20.20;99.90
11284;DHT22;5698;47.332;11.180;2023-09-19T09:15:53;20.60;99.90
11284;DHT22;5698;47.332;11.180;2023-09-19T09:18:21;20.80;99.90
11284;DHT22;5698;47.332;11.180;2023-09-19T09:20:48;21.00;99.90
11284;DHT22;5698;47.332;11.180;2023-09-19T09:23:16;21.30;99.90
11284;DHT22;5698;47.332;11.180;2023-09-19T09:25:50;21.40;99.90
11284;DHT22;5698;47.332;11.180;2023-09-19T09:28:23;21.30;99.90
11284;DHT22;5698;47.332;11.180;2023-09-19T09:30:50;21.20;99.90
11284;DHT22;5698;47.332;11.180;2023-09-19T09:33:17;21.10;99.90
11284;DHT22;5698;47.332;11.180;2023-09-19T09:35:48;21.00;99.90
11284;DHT22;5698;47.332;11.180;2023-09-19T09:38:19;21.00;99.90
11284;DHT22;5698;47.332;11.180;2023-09-19T09:40:48;21.00;99.90
11284;DHT22;5698;47.332;11.180;2023-09-19T09:43:26;20.90;99.90
11284;DHT22;5698;47.332;11.180;2023-09-19T09:46:11;20.90;99.90
11284;DHT22;5698;47.332;11.180;2023-09-19T09:49:10;20.90;99.90
11284;DHT22;5698;47.332;11.180;2023-09-19T09:51:59;20.80;99.90
11284;DHT22;5698;47.332;11.180;2023-09-19T09:54:32;20.60;99.90
11284;DHT22;5698;47.332;11.180;2023-09-19T09:57:03;20.50;99.90
11284;DHT22;5698;47.332;11.180;2023-09-19T09:59:50;20.50;99.90
11284;DHT22;5698;47.332;11.180;2023-09-19T10:02:20;20.60;99.90
11284;DHT22;5698;47.332;11.180;2023-09-19T10:04:52;20.80;99.90
11284;DHT22;5698;47.332;11.180;2023-09-19T10:07:28;21.20;99.90
11284;DHT22;5698;47.332;11.180;2023-09-19T10:10:01;21.40;99.40
11284;DHT22;5698;47.332;11.180;2023-09-19T10:12:44;21.60;99.10
11284;DHT22;5698;47.332;11.180;2023-09-19T10:15:15;21.90;97.70
11284;DHT22;5698;47.332;11.180;2023-09-19T10:17:46;22.20;97.10
11284;DHT22;5698;47.332;11.180;2023-09-19T10:20:15;22.20;98.00
11284;DHT22;5698;47.332;11.180;2023-09-19T10:23:06;22.10;97.60
11284;DHT22;5698;47.332;11.180;2023-09-19T10:25:40;21.60;97.80
11284;DHT22;5698;47.332;11.180;2023-09-19T10:28:09;21.30;98.50
11284;DHT22;5698;47.332;11.180;2023-09-19T10:30:38;21.20;99.00
11284;DHT22;5698;47.332;11.180;2023-09-19T10:33:10;21.50;99.90
11284;DHT22;5698;47.332;11.180;2023-09-19T10:35:39;22.00;99.90
11284;DHT22;5698;47.332;11.180;2023-09-19T10:38:08;22.60;99.10
11284;DHT22;5698;47.332;11.180;2023-09-19T10:40:39;23.10;98.50
11284;DHT22;5698;47.332;11.180;2023-09-19T10:43:12;23.40;95.10
11284;DHT22;5698;47.332;11.180;2023-09-19T10:45:39;23.30;95.60
11284;DHT22;5698;47.332;11.180;2023-09-19T10:48:07;23.00;96.50
11284;DHT22;5698;47.332;11.180;2023-09-19T10:50:41;22.80;97.40
11284;DHT22;5698;47.332;11.180;2023-09-19T10:53:11;22.60;97.00
11284;DHT22;5698;47.332;11.180;2023-09-19T10:55:40;22.40;97.80
11284;DHT22;5698;47.332;11.180;2023-09-19T10:58:07;22.20;98.50
11284;DHT22;5698;47.332;11.180;2023-09-19T11:00:54;22.20;99.10
11284;DHT22;5698;47.332;11.180;2023-09-19T11:03:22;22.30;99.20
11284;DHT22;5698;47.332;11.180;2023-09-19T11:06:03;22.50;99.20
11284;DHT22;5698;47.332;11.180;2023-09-19T11:09:03;22.80;98.30
11284;DHT22;5698;47.332;11.180;2023-09-19T11:11:47;22.90;97.80
11284;DHT22;5698;47.332;11.180;2023-09-19T11:14:29;23.20;97.40
11284;DHT22;5698;47.332;11.180;2023-09-19T11:20:20;23.10;96.40
11284;DHT22;5698;47.332;11.180;2023-09-19T11:23:18;23.00;96.70
11284;DHT22;5698;47.332;11.180;2023-09-19T11:25:44;23.00;96.40
11284;DHT22;5698;47.332;11.180;2023-09-19T11:28:42;23.20;95.40
11284;DHT22;5698;47.332;11.180;2023-09-19T11:34:40;22.90;95.40
11284;DHT22;5698;47.332;11.180;2023-09-19T11:40:37;22.70;95.00
11284;DHT22;5698;47.332;11.180;2023-09-19T11:43:29;22.40;95.00
11284;DHT22;5698;47.332;11.180;2023-09-19T11:46:03;22.60;95.50
11284;DHT22;5698;47.332;11.180;2023-09-19T11:48:32;22.90;94.90
11284;DHT22;5698;47.332;11.180;2023-09-19T11:51:00;23.00;94.70
11284;DHT22;5698;47.332;11.180;2023-09-19T11:53:33;23.10;94.50
11284;DHT22;5698;47.332;11.180;2023-09-19T11:56:04;23.40;94.00
11284;DHT22;5698;47.332;11.180;2023-09-19T11:58:32;23.80;93.50
11284;DHT22;5698;47.332;11.180;2023-09-19T12:01:00;23.80;93.60
11284;DHT22;5698;47.332;11.180;2023-09-19T12:03:36;23.70;93.10
11284;DHT22;5698;47.332;11.180;2023-09-19T12:06:11;23.70;93.80
11284;DHT22;5698;47.332;11.180;2023-09-19T12:08:40;24.00;93.70
11284;DHT22;5698;47.332;11.180;2023-09-19T12:11:16;24.50;93.00
11284;DHT22;5698;47.332;11.180;2023-09-19T12:13:43;24.90;91.80
11284;DHT22;5698;47.332;11.180;2023-09-19T12:16:13;25.10;91.40
11284;DHT22;5698;47.332;11.180;2023-09-19T12:18:43;25.10;91.10
11284;DHT22;5698;47.332;11.180;2023-09-19T12:21:25;24.80;91.20
11284;DHT22;5698;47.332;11.180;2023-09-19T12:24:12;24.40;91.10
11284;DHT22;5698;47.332;11.180;2023-09-19T12:26:40;24.10;90.90
11284;DHT22;5698;47.332;11.180;2023-09-19T12:29:16;24.00;92.00
11284;DHT22;5698;47.332;11.180;2023-09-19T12:31:48;23.60;92.50
11284;DHT22;5698;47.332;11.180;2023-09-19T12:34:20;23.40;92.70
11284;DHT22;5698;47.332;11.180;2023-09-19T12:36:47;23.20;93.00
11284;DHT22;5698;47.332;11.180;2023-09-19T12:39:23;23.00;93.40
11284;DHT22;5698;47.332;11.180;2023-09-19T12:41:51;23.00;93.70
11284;DHT22;5698;47.332;11.180;2023-09-19T12:44:19;23.00;92.80
11284;DHT22;5698;47.332;11.180;2023-09-19T12:46:47;22.90;93.30
11284;DHT22;5698;47.332;11.180;2023-09-19T12:49:18;22.80;92.60
11284;DHT22;5698;47.332;11.180;2023-09-19T12:51:46;22.60;92.20
11284;DHT22;5698;47.332;11.180;2023-09-19T12:54:13;22.40;92.90
11284;DHT22;5698;47.332;11.180;2023-09-19T12:56:42;22.20;92.90
11284;DHT22;5698;47.332;11.180;2023-09-19T13:01:43;21.80;93.30
11284;DHT22;5698;47.332;11.180;2023-09-19T13:04:15;21.50;92.70
11284;DHT22;5698;47.332;11.180;2023-09-19T13:06:46;21.30;93.00
11284;DHT22;5698;47.332;11.180;2023-09-19T13:09:17;21.10;93.80
11284;DHT22;5698;47.332;11.180;2023-09-19T13:11:46;21.10;93.70
11284;DHT22;5698;47.332;11.180;2023-09-19T13:14:18;21.20;93.80
11284;DHT22;5698;47.332;11.180;2023-09-19T13:17:00;21.20;93.90
11284;DHT22;5698;47.332;11.180;2023-09-19T13:19:42;21.30;94.20
11284;DHT22;5698;47.332;11.180;2023-09-19T13:22:38;21.40;94.40
11284;DHT22;5698;47.332;11.180;2023-09-19T13:27:34;21.90;94.10
11284;DHT22;5698;47.332;11.180;2023-09-19T13:30:01;22.20;93.80
11284;DHT22;5698;47.332;11.180;2023-09-19T13:32:27;22.50;93.40
11284;DHT22;5698;47.332;11.180;2023-09-19T13:34:54;22.80;92.70
11284;DHT22;5698;47.332;11.180;2023-09-19T13:37:21;23.10;92.90
11284;DHT22;5698;47.332;11.180;2023-09-19T13:39:50;23.30;92.20
11284;DHT22;5698;47.332;11.180;2023-09-19T13:42:17;23.50;91.20
11284;DHT22;5698;47.332;11.180;2023-09-19T13:44:47;23.50;91.40
11284;DHT22;5698;47.332;11.180;2023-09-19T13:47:14;23.20;91.70
11284;DHT22;5698;47.332;11.180;2023-09-19T13:49:42;22.90;92.10
11284;DHT22;5698;47.332;11.180;2023-09-19T13:52:10;22.60;92.50
11284;DHT22;5698;47.332;11.180;2023-09-19T13:54:38;22.20;93.10
11284;DHT22;5698;47.332;11.180;2023-09-19T13:57:06;21.90;93.60
11284;DHT22;5698;47.332;11.180;2023-09-19T13:59:33;21.60;93.90
11284;DHT22;5698;47.332;11.180;2023-09-19T14:02:00;21.40;94.30
11284;DHT22;5698;47.332;11.180;2023-09-19T14:04:31;21.10;94.60
11284;DHT22;5698;47.332;11.180;2023-09-19T14:07:00;20.80;95.20
11284;DHT22;5698;47.332;11.180;2023-09-19T14:09:27;20.60;95.90
11284;DHT22;5698;47.332;11.180;2023-09-19T14:11:54;20.30;96.00
11284;DHT22;5698;47.332;11.180;2023-09-19T14:14:22;20.10;96.50
11284;DHT22;5698;47.332;11.180;2023-09-19T14:16:49;20.00;96.90
11284;DHT22;5698;47.332;11.180;2023-09-19T14:19:16;19.80;96.40
11284;DHT22;5698;47.332;11.180;2023-09-19T14:21:43;19.70;96.50
11284;DHT22;5698;47.332;11.180;2023-09-19T14:24:10;19.50;96.50
11284;DHT22;5698;47.332;11.180;2023-09-19T14:26:38;19.30;96.70
11284;DHT22;5698;47.332;11.180;2023-09-19T14:29:05;19.20;97.40
11284;DHT22;5698;47.332;11.180;2023-09-19T14:31:37;19.10;97.40
11284;DHT22;5698;47.332;11.180;2023-09-19T14:34:05;19.00;97.50
11284;DHT22;5698;47.332;11.180;2023-09-19T14:36:32;18.90;97.90
11284;DHT22;5698;47.332;11.180;2023-09-19T14:38:59;18.80;98.50
11284;DHT22;5698;47.332;11.180;2023-09-19T14:41:26;18.60;98.50
11284;DHT22;5698;47.332;11.180;2023-09-19T14:43:53;18.50;98.90
11284;DHT22;5698;47.332;11.180;2023-09-19T14:46:21;18.30;99.30
11284;DHT22;5698;47.332;11.180;2023-09-19T14:48:51;18.20;99.80
11284;DHT22;5698;47.332;11.180;2023-09-19T14:51:18;18.20;99.50
11284;DHT22;5698;47.332;11.180;2023-09-19T14:53:45;18.10;99.70
11284;DHT22;5698;47.332;11.180;2023-09-19T14:56:13;18.00;99.80
11284;DHT22;5698;47.332;11.180;2023-09-19T14:58:44;18.00;99.70
11284;DHT22;5698;47.332;11.180;2023-09-19T15:01:11;17.90;99.90
11284;DHT22;5698;47.332;11.180;2023-09-19T15:03:40;17.80;99.90
11284;DHT22;5698;47.332;11.180;2023-09-19T15:06:10;17.80;99.90
11284;DHT22;5698;47.332;11.180;2023-09-19T15:08:40;17.80;99.90
11284;DHT22;5698;47.332;11.180;2023-09-19T15:11:11;17.70;99.90
11284;DHT22;5698;47.332;11.180;2023-09-19T15:13:38;17.60;99.90
11284;DHT22;5698;47.332;11.180;2023-09-19T15:16:06;17.60;99.90
11284;DHT22;5698;47.332;11.180;2023-09-19T15:18:36;17.50;99.90
11284;DHT22;5698;47.332;11.180;2023-09-19T15:21:05;17.50;99.90
11284;DHT22;5698;47.332;11.180;2023-09-19T15:23:34;17.50;99.90
11284;DHT22;5698;47.332;11.180;2023-09-19T15:26:02;17.40;99.90
11284;DHT22;5698;47.332;11.180;2023-09-19T15:28:29;17.30;99.90
11284;DHT22;5698;47.332;11.180;2023-09-19T15:30:58;17.10;99.90
11284;DHT22;5698;47.332;11.180;2023-09-19T15:33:25;17.10;99.90
11284;DHT22;5698;47.332;11.180;2023-09-19T15:36:00;17.00;99.90
11284;DHT22;5698;47.332;11.180;2023-09-19T15:38:29;17.00;99.90
11284;DHT22;5698;47.332;11.180;2023-09-19T15:40:58;16.90;99.90
11284;DHT22;5698;47.332;11.180;2023-09-19T15:43:26;16.80;99.90
11284;DHT22;5698;47.332;11.180;2023-09-19T15:45:53;16.70;99.90
11284;DHT22;5698;47.332;11.180;2023-09-19T15:48:20;16.70;99.90
11284;DHT22;5698;47.332;11.180;2023-09-19T15:50:47;16.60;99.90
11284;DHT22;5698;47.332;11.180;2023-09-19T15:53:14;16.60;99.90
11284;DHT22;5698;47.332;11.180;2023-09-19T15:55:42;16.50;99.90
11284;DHT22;5698;47.332;11.180;2023-09-19T15:58:12;16.50;99.90
11284;DHT22;5698;47.332;11.180;2023-09-19T16:00:42;16.50;99.90
11284;DHT22;5698;47.332;11.180;2023-09-19T16:03:09;16.40;99.90
11284;DHT22;5698;47.332;11.180;2023-09-19T16:05:36;16.50;99.90